createdAt,value
2018-01-21T00:01:02.493Z,34.10
2018-01-21T00:03:29.978Z,33.67
2018-01-21T00:05:57.453Z,33.13
2018-01-21T00:08:24.959Z,30.53
2018-01-21T00:10:52.451Z,30.88
2018-01-21T00:13:19.939Z,29.10
2018-01-21T00:15:47.428Z,29.70
2018-01-21T00:18:14.911Z,29.17
2018-01-21T00:20:42.398Z,26.60
2018-01-21T00:23:09.864Z,24.57
2018-01-21T00:25:37.362Z,27.20
2018-01-21T00:28:04.841Z,27.20
2018-01-21T00:30:32.325Z,28.37
2018-01-21T00:32:59.807Z,26.80
2018-01-21T00:35:27.296Z,30.33
2018-01-21T00:37:54.783Z,34.87
2018-01-21T00:40:22.272Z,32.60
2018-01-21T00:42:49.754Z,29.35
2018-01-21T00:45:17.263Z,34.92
2018-01-21T00:47:44.745Z,38.00
2018-01-21T00:50:12.238Z,35.13
2018-01-21T00:52:40.490Z,36.97
2018-01-21T00:55:07.976Z,34.58
2018-01-21T00:57:35.458Z,34.73
2018-01-21T01:00:02.940Z,31.27
2018-01-21T01:02:30.418Z,30.97
2018-01-21T01:04:57.900Z,36.00
2018-01-21T01:07:26.136Z,37.33
2018-01-21T01:09:53.623Z,43.07
2018-01-21T01:12:21.883Z,47.23
2018-01-21T01:14:49.359Z,48.77
2018-01-21T01:17:16.834Z,54.33
2018-01-21T01:19:45.349Z,66.87
2018-01-21T01:22:12.820Z,73.40
2018-01-21T01:24:40.325Z,101.37
2018-01-21T01:27:08.564Z,54.37
2018-01-21T01:29:36.823Z,45.27
2018-01-21T01:32:04.297Z,48.23
2018-01-21T01:34:31.786Z,40.13
2018-01-21T01:37:00.033Z,37.47
2018-01-21T01:39:27.519Z,34.93
2018-01-21T01:41:55.016Z,39.13
2018-01-21T01:44:22.484Z,39.72
2018-01-21T01:46:49.983Z,38.00
2018-01-21T01:49:17.470Z,36.60
2018-01-21T01:51:45.732Z,33.27
2018-01-21T01:54:13.200Z,27.37
2018-01-21T01:56:41.454Z,31.47
2018-01-21T01:59:08.935Z,30.37
2018-01-21T02:01:37.186Z,30.43
2018-01-21T02:04:04.652Z,29.63
2018-01-21T02:06:32.129Z,29.57
2018-01-21T02:09:00.382Z,26.08
2018-01-21T02:11:27.861Z,29.13
2018-01-21T02:13:56.106Z,29.03
2018-01-21T02:16:23.586Z,30.70
2018-01-21T02:18:51.053Z,32.77
2018-01-21T02:21:19.296Z,30.97
2018-01-21T02:23:46.761Z,31.17
2018-01-21T02:26:14.236Z,33.27
2018-01-21T02:28:41.705Z,32.30
2018-01-21T02:31:09.948Z,30.00
2018-01-21T02:33:37.412Z,32.97
2018-01-21T02:36:04.895Z,32.60
2018-01-21T02:38:33.136Z,32.33
2018-01-21T02:41:00.613Z,29.47
2018-01-21T02:43:28.087Z,31.33
2018-01-21T02:45:56.337Z,30.03
2018-01-21T02:48:23.804Z,30.40
2018-01-21T02:50:51.296Z,28.77
2018-01-21T02:53:18.774Z,27.70
2018-01-21T02:55:46.260Z,26.73
2018-01-21T02:58:13.724Z,21.73
2018-01-21T03:00:41.205Z,26.80
2018-01-21T03:03:08.682Z,22.30
2018-01-21T03:05:36.918Z,26.83
2018-01-21T03:08:04.404Z,26.58
2018-01-21T03:10:31.873Z,27.87
2018-01-21T03:13:00.125Z,33.27
2018-01-21T03:15:27.601Z,33.23
2018-01-21T03:17:55.853Z,39.23
2018-01-21T03:20:23.319Z,40.30
2018-01-21T03:22:50.844Z,38.07
2018-01-21T03:25:18.308Z,20.07
2018-01-21T03:27:45.796Z,28.57
2018-01-21T03:30:13.271Z,27.42
2018-01-21T03:32:41.520Z,28.10
2018-01-21T03:35:08.988Z,26.02
2018-01-21T03:37:36.468Z,28.77
2018-01-21T03:40:04.720Z,29.17
2018-01-21T03:42:32.196Z,30.53
2018-01-21T03:45:00.436Z,27.17
2018-01-21T03:47:27.920Z,28.50
2018-01-21T03:49:55.384Z,25.77
2018-01-21T03:52:22.864Z,26.00
2018-01-21T03:54:51.092Z,27.50
2018-01-21T03:57:18.584Z,29.60
2018-01-21T03:59:46.816Z,27.73
2018-01-21T04:02:14.292Z,30.57
2018-01-21T04:04:42.540Z,32.40
2018-01-21T04:07:10.021Z,34.27
2018-01-21T04:09:37.495Z,34.97
2018-01-21T04:12:05.740Z,33.27
2018-01-21T04:14:33.207Z,33.07
2018-01-21T04:17:00.689Z,33.37
2018-01-21T04:19:28.153Z,34.73
2018-01-21T04:21:55.645Z,35.23
2018-01-21T04:24:23.111Z,34.03
2018-01-21T04:26:50.585Z,33.63
2018-01-21T04:29:18.064Z,28.87
2018-01-21T04:31:45.528Z,28.93
2018-01-21T04:34:13.009Z,28.87
2018-01-21T04:36:41.239Z,26.87
2018-01-21T04:39:08.724Z,29.00
2018-01-21T04:41:36.195Z,28.30
2018-01-21T04:44:03.672Z,28.70
2018-01-21T04:46:31.903Z,29.40
2018-01-21T04:48:59.393Z,27.63
2018-01-21T04:51:27.631Z,28.80
2018-01-21T04:53:55.117Z,26.63
2018-01-21T04:56:22.589Z,24.13
2018-01-21T04:58:50.837Z,26.03
2018-01-21T05:01:18.307Z,25.33
2018-01-21T05:03:45.784Z,24.90
2018-01-21T05:06:14.025Z,26.33
2018-01-21T05:08:41.512Z,25.87
2018-01-21T05:11:08.971Z,24.90
2018-01-21T05:13:37.218Z,23.83
2018-01-21T05:16:04.684Z,24.43
2018-01-21T05:18:32.156Z,25.47
2018-01-21T05:20:59.629Z,24.67
2018-01-21T05:23:27.881Z,25.40
2018-01-21T05:25:55.340Z,23.27
2018-01-21T05:28:22.824Z,24.83
2018-01-21T05:30:51.063Z,23.30
2018-01-21T05:33:18.545Z,24.40
2018-01-21T05:35:46.008Z,25.13
2018-01-21T05:38:14.261Z,26.30
2018-01-21T05:40:41.725Z,24.37
2018-01-21T05:43:09.213Z,21.07
2018-01-21T05:45:37.449Z,22.77
2018-01-21T05:48:04.926Z,23.77
2018-01-21T05:50:32.401Z,22.23
2018-01-21T05:53:00.637Z,23.37
2018-01-21T05:55:28.109Z,22.93
2018-01-21T05:57:55.584Z,24.50
2018-01-21T06:00:23.069Z,23.20
2018-01-21T06:02:50.532Z,23.73
2018-01-21T06:05:18.013Z,24.47
2018-01-21T06:07:45.476Z,22.33
2018-01-21T06:10:12.964Z,24.80
2018-01-21T06:12:40.436Z,25.03
2018-01-21T06:15:07.909Z,23.47
2018-01-21T06:17:36.144Z,28.77
2018-01-21T06:20:03.620Z,24.23
2018-01-21T06:22:31.096Z,36.47
2018-01-21T06:24:59.341Z,24.23
2018-01-21T06:27:26.809Z,25.53
2018-01-21T06:29:54.284Z,23.03
2018-01-21T06:32:22.523Z,24.17
2018-01-21T06:34:50.002Z,19.40
2018-01-21T06:37:17.472Z,28.97
2018-01-21T06:39:45.712Z,23.57
2018-01-21T06:42:13.189Z,30.17
2018-01-21T06:44:40.660Z,19.83
2018-01-21T06:47:08.132Z,28.83
2018-01-21T06:49:36.392Z,43.07
2018-01-21T06:52:03.860Z,24.47
2018-01-21T06:54:32.158Z,31.10
2018-01-21T06:56:59.613Z,28.93
2018-01-21T06:59:27.861Z,22.70
2018-01-21T07:01:56.864Z,34.53
2018-01-21T07:04:24.340Z,22.37
2018-01-21T07:06:52.621Z,24.03
2018-01-21T07:09:20.076Z,33.37
2018-01-21T07:11:47.874Z,27.70
2018-01-21T07:14:15.349Z,21.77
2018-01-21T07:16:42.824Z,20.50
2018-01-21T07:19:10.287Z,21.43
2018-01-21T07:21:37.763Z,19.57
2018-01-21T07:24:06.002Z,19.43
2018-01-21T07:26:33.471Z,19.43
2018-01-21T07:29:00.945Z,20.60
2018-01-21T07:31:28.420Z,21.40
2018-01-21T07:33:56.665Z,19.83
2018-01-21T07:36:24.140Z,25.13
2018-01-21T07:38:51.608Z,19.47
2018-01-21T07:41:19.094Z,18.73
2018-01-21T07:43:46.556Z,20.53
2018-01-21T07:46:14.041Z,19.13
2018-01-21T07:48:41.525Z,18.90
2018-01-21T07:51:09.017Z,17.40
2018-01-21T07:53:37.257Z,18.73
2018-01-21T07:56:04.736Z,19.13
2018-01-21T07:58:32.976Z,18.37
2018-01-21T08:01:00.461Z,17.80
2018-01-21T08:03:28.700Z,16.53
2018-01-21T08:05:56.179Z,17.50
2018-01-21T08:08:23.644Z,17.43
2018-01-21T08:10:51.116Z,16.40
2018-01-21T08:13:19.353Z,16.60
2018-01-21T08:15:46.836Z,15.97
2018-01-21T08:18:14.309Z,14.57
2018-01-21T08:20:42.548Z,14.57
2018-01-21T08:23:10.017Z,13.53
2018-01-21T08:25:37.494Z,14.00
2018-01-21T08:28:04.965Z,12.50
2018-01-21T08:30:33.209Z,13.13
2018-01-21T08:33:00.668Z,12.53
2018-01-21T08:35:33.779Z,12.90
2018-01-21T08:38:07.749Z,11.37
2018-01-21T08:40:41.034Z,10.67
2018-01-21T08:43:08.506Z,10.57
2018-01-21T08:45:35.993Z,10.83
2018-01-21T08:48:03.470Z,11.10
2018-01-21T08:50:31.704Z,9.60
2018-01-21T08:52:59.183Z,9.30
2018-01-21T08:55:26.648Z,9.83
2018-01-21T08:57:54.124Z,10.63
2018-01-21T09:00:22.352Z,9.90
2018-01-21T09:02:49.832Z,9.57
2018-01-21T09:05:17.304Z,10.73
2018-01-21T09:07:44.780Z,9.63
2018-01-21T09:10:12.240Z,8.93
2018-01-21T09:12:40.484Z,9.37
2018-01-21T09:15:07.944Z,8.50
2018-01-21T09:17:35.424Z,8.50
2018-01-21T09:20:03.660Z,8.47
2018-01-21T09:22:31.132Z,8.53
2018-01-21T09:24:58.613Z,7.50
2018-01-21T09:27:26.853Z,6.90
2018-01-21T09:29:54.321Z,8.10
2018-01-21T09:32:21.792Z,8.43
2018-01-21T09:34:49.281Z,7.67
2018-01-21T09:37:17.516Z,8.23
2018-01-21T09:45:51.153Z,6.67
2018-01-21T09:48:18.640Z,6.97
2018-01-21T09:50:46.115Z,6.93
2018-01-21T09:53:14.364Z,7.13
2018-01-21T09:55:41.820Z,7.23
2018-01-21T09:58:09.302Z,7.17
2018-01-21T10:00:37.528Z,6.83
2018-01-21T10:03:05.000Z,7.17
2018-01-21T10:05:32.479Z,7.57
2018-01-21T10:07:59.948Z,6.10
2018-01-21T10:10:28.185Z,6.57
2018-01-21T10:12:56.429Z,7.13
2018-01-21T10:15:23.932Z,6.07
2018-01-21T10:17:51.408Z,6.33
2018-01-21T10:20:19.640Z,6.27
2018-01-21T10:22:47.120Z,6.73
2018-01-21T10:25:14.588Z,5.20
2018-01-21T10:27:43.044Z,5.33
2018-01-21T10:30:10.512Z,5.90
2018-01-21T10:32:37.984Z,5.97
2018-01-21T10:35:05.448Z,6.60
2018-01-21T10:37:32.916Z,5.33
2018-01-21T10:40:01.145Z,5.60
2018-01-21T10:42:28.620Z,5.20
2018-01-21T10:44:56.084Z,5.77
2018-01-21T10:47:23.562Z,6.37
2018-01-21T10:49:51.026Z,6.70
2018-01-21T10:52:18.489Z,5.80
2018-01-21T10:54:46.728Z,5.63
2018-01-21T10:57:14.196Z,6.37
2018-01-21T10:59:41.673Z,5.40
2018-01-21T11:02:09.148Z,6.23
2018-01-21T11:04:37.393Z,5.93
2018-01-21T11:07:04.866Z,7.63
2018-01-21T11:09:32.332Z,6.30
2018-01-21T11:12:00.560Z,5.83
2018-01-21T11:14:28.036Z,6.23
2018-01-21T11:16:55.504Z,6.40
2018-01-21T11:19:22.976Z,5.77
2018-01-21T11:21:50.450Z,5.13
2018-01-21T11:24:18.722Z,5.90
2018-01-21T11:26:46.156Z,5.33
2018-01-21T11:29:13.635Z,5.07
2018-01-21T11:31:41.868Z,4.67
2018-01-21T11:34:09.353Z,5.53
2018-01-21T11:36:36.821Z,5.43
2018-01-21T11:39:05.163Z,4.93
2018-01-21T11:41:32.690Z,3.93
2018-01-21T11:44:00.201Z,4.23
2018-01-21T11:46:27.676Z,5.20
2018-01-21T11:48:55.912Z,5.67
2018-01-21T11:51:23.377Z,5.37
2018-01-21T11:53:50.844Z,5.30
2018-01-21T11:56:18.304Z,5.40
2018-01-21T11:58:45.777Z,5.30
2018-01-21T12:01:13.242Z,4.43
2018-01-21T12:03:40.721Z,4.50
2018-01-21T12:06:09.005Z,4.20
2018-01-21T12:08:36.481Z,4.20
2018-01-21T12:11:03.945Z,4.60
2018-01-21T12:13:31.422Z,4.53
2018-01-21T12:15:58.884Z,4.03
2018-01-21T12:18:26.368Z,3.97
2018-01-21T12:20:53.831Z,4.03
2018-01-21T12:23:22.061Z,4.60
2018-01-21T12:25:49.532Z,4.47
2018-01-21T12:28:17.038Z,4.10
2018-01-21T12:30:45.269Z,4.20
2018-01-21T12:33:12.735Z,5.60
2018-01-21T12:35:40.578Z,4.80
2018-01-21T12:38:08.037Z,4.47
2018-01-21T12:40:35.523Z,8.30
2018-01-21T12:43:02.985Z,6.87
2018-01-21T12:45:30.508Z,12.13
2018-01-21T12:47:57.969Z,7.10
2018-01-21T12:50:25.440Z,7.97
2018-01-21T12:52:52.909Z,8.20
2018-01-21T12:55:20.383Z,7.50
2018-01-21T12:57:48.286Z,7.33
2018-01-21T13:00:15.764Z,6.63
2018-01-21T13:02:43.279Z,7.37
2018-01-21T13:05:11.528Z,6.23
2018-01-21T13:07:38.997Z,8.13
2018-01-21T13:10:06.490Z,7.10
2018-01-21T13:12:33.962Z,7.70
2018-01-21T13:15:01.440Z,8.27
2018-01-21T13:17:28.905Z,6.97
2018-01-21T13:19:56.380Z,5.47
2018-01-21T13:22:23.895Z,5.70
2018-01-21T13:24:51.374Z,5.40
2018-01-21T13:27:18.833Z,6.40
2018-01-21T13:29:46.315Z,7.53
2018-01-21T13:32:14.597Z,10.63
2018-01-21T13:34:42.036Z,5.20
2018-01-21T13:37:15.331Z,6.83
2018-01-21T13:39:42.806Z,6.10
2018-01-21T13:42:10.273Z,6.40
2018-01-21T13:44:37.748Z,4.63
2018-01-21T13:47:05.976Z,4.57
2018-01-21T13:49:33.440Z,3.53
2018-01-21T13:52:00.916Z,3.30
2018-01-21T13:54:28.376Z,4.40
2018-01-21T13:56:55.849Z,4.90
2018-01-21T13:59:24.080Z,6.23
2018-01-21T14:01:51.575Z,12.50
2018-01-21T14:04:19.040Z,14.83
2018-01-21T14:06:47.280Z,3.60
2018-01-21T14:09:14.754Z,4.27
2018-01-21T14:11:42.280Z,5.87
2018-01-21T14:14:09.736Z,6.60
2018-01-21T14:16:37.212Z,7.27
2018-01-21T14:19:04.674Z,4.47
2018-01-21T14:21:32.150Z,4.00
2018-01-21T14:23:59.655Z,3.90
2018-01-21T14:26:27.171Z,4.27
2018-01-21T14:28:54.628Z,4.13
2018-01-21T14:31:22.137Z,3.63
2018-01-21T14:33:49.647Z,3.67
2018-01-21T14:36:17.120Z,4.00
2018-01-21T14:38:45.348Z,4.73
2018-01-21T14:41:12.820Z,3.77
2018-01-21T14:43:40.293Z,4.37
2018-01-21T14:46:07.756Z,4.97
2018-01-21T14:48:35.276Z,5.00
2018-01-21T14:51:02.795Z,4.67
2018-01-21T14:53:31.012Z,4.20
2018-01-21T14:55:58.531Z,4.73
2018-01-21T14:58:26.757Z,5.17
2018-01-21T15:00:54.274Z,4.73
2018-01-21T15:03:22.520Z,5.40
2018-01-21T15:05:50.006Z,5.23
2018-01-21T15:08:18.252Z,6.93
2018-01-21T15:10:45.728Z,5.77
2018-01-21T15:13:13.958Z,6.30
2018-01-21T15:15:41.433Z,8.33
2018-01-21T15:18:08.951Z,6.07
2018-01-21T15:20:36.432Z,6.90
2018-01-21T15:23:03.909Z,6.63
2018-01-21T15:25:31.383Z,7.23
2018-01-21T15:27:58.852Z,6.60
2018-01-21T15:30:27.127Z,7.43
2018-01-21T15:32:54.598Z,7.63
2018-01-21T15:35:22.828Z,7.90
2018-01-21T15:37:50.345Z,7.00
2018-01-21T15:40:18.624Z,8.00
2018-01-21T15:42:46.151Z,8.50
2018-01-21T15:45:13.654Z,7.63
2018-01-21T15:47:41.124Z,7.63
2018-01-21T15:50:08.584Z,7.10
2018-01-21T15:52:36.065Z,8.50
2018-01-21T15:55:03.579Z,7.03
2018-01-21T15:57:31.085Z,7.33
2018-01-21T15:59:59.372Z,8.23
2018-01-21T16:02:26.844Z,7.90
2018-01-21T16:04:55.134Z,8.13
2018-01-21T16:07:23.378Z,10.20
2018-01-21T16:09:50.844Z,8.10
2018-01-21T16:12:18.337Z,9.63
2018-01-21T16:14:46.620Z,8.77
2018-01-21T16:17:14.140Z,9.20
2018-01-21T16:19:41.613Z,9.50
2018-01-21T16:22:09.321Z,14.23
2018-01-21T16:24:36.793Z,9.27
2018-01-21T16:27:04.267Z,10.53
2018-01-21T16:29:31.740Z,11.63
2018-01-21T16:31:59.223Z,12.43
2018-01-21T16:34:27.466Z,10.67
2018-01-21T16:36:54.996Z,12.10
2018-01-21T16:39:39.627Z,11.30
2018-01-21T16:42:07.870Z,12.20
2018-01-21T16:44:35.342Z,20.40
2018-01-21T16:47:03.588Z,15.67
2018-01-21T16:49:31.060Z,13.90
2018-01-21T16:51:58.543Z,12.40
2018-01-21T16:54:26.803Z,14.33
2018-01-21T16:56:54.248Z,14.67
2018-01-21T16:59:21.725Z,10.83
2018-01-21T17:01:49.238Z,24.57
2018-01-21T17:04:16.716Z,53.73
2018-01-21T17:06:44.198Z,180.67
2018-01-21T17:09:11.673Z,24.37
2018-01-21T17:11:39.964Z,27.80
2018-01-21T17:14:07.448Z,35.80
2018-01-21T17:16:34.964Z,44.80
2018-01-21T17:19:03.204Z,22.63
2018-01-21T17:21:30.677Z,14.67
2018-01-21T17:23:58.209Z,14.17
2018-01-21T17:26:26.440Z,13.67
2018-01-21T17:28:54.685Z,15.53
2018-01-21T17:31:22.207Z,20.00
2018-01-21T17:33:49.719Z,29.73
2018-01-21T17:36:17.243Z,17.27
2018-01-21T17:38:44.811Z,16.50
2018-01-21T17:41:12.310Z,17.80
2018-01-21T17:43:40.554Z,17.07
2018-01-21T17:46:08.028Z,15.07
2018-01-21T17:48:35.500Z,14.60
2018-01-21T17:51:03.739Z,14.63
2018-01-21T17:53:31.212Z,13.90
2018-01-21T17:55:58.736Z,14.37
2018-01-21T17:58:26.314Z,13.40
2018-01-21T18:00:53.744Z,13.00
2018-01-21T18:03:21.279Z,15.07
2018-01-21T18:05:49.559Z,11.30
2018-01-21T18:08:17.041Z,10.70
2018-01-21T18:10:44.577Z,10.57
2018-01-21T18:13:12.056Z,13.17
2018-01-21T18:15:39.532Z,10.63
2018-01-21T18:18:07.824Z,14.20
2018-01-21T18:20:35.288Z,11.30
2018-01-21T18:23:02.827Z,12.70
2018-01-21T18:25:30.296Z,14.13
2018-01-21T18:27:57.821Z,12.57
2018-01-21T18:30:25.338Z,10.27
2018-01-21T18:32:52.856Z,10.73
2018-01-21T18:35:20.382Z,12.35
2018-01-21T18:37:48.447Z,10.88
2018-01-21T18:40:16.744Z,11.82
2018-01-21T18:42:44.216Z,10.57
2018-01-21T18:45:11.738Z,9.45
2018-01-21T18:47:39.968Z,10.32
2018-01-21T18:50:07.460Z,10.33
2018-01-21T18:52:34.937Z,8.07
2018-01-21T18:55:03.232Z,9.77
2018-01-21T18:57:30.700Z,9.60
2018-01-21T18:59:58.235Z,8.93
2018-01-21T19:02:26.519Z,9.52
2018-01-21T19:04:54.044Z,8.55
2018-01-21T19:07:21.565Z,8.60
2018-01-21T19:09:49.091Z,8.57
2018-01-21T19:12:17.375Z,9.27
2018-01-21T19:14:44.852Z,8.48
2018-01-21T19:17:12.320Z,9.13
2018-01-21T19:19:39.851Z,7.82
2018-01-21T19:22:07.317Z,7.43
2018-01-21T19:24:34.847Z,8.32
2018-01-21T19:27:03.082Z,8.02
2018-01-21T19:29:30.612Z,8.90
2018-01-21T19:31:58.131Z,9.95
2018-01-21T19:34:25.609Z,9.10
2018-01-21T19:36:53.886Z,7.43
2018-01-21T19:42:43.404Z,8.20
2018-01-21T19:45:10.897Z,8.52
2018-01-21T19:47:38.372Z,8.40
2018-01-21T19:50:05.919Z,9.35
2018-01-21T19:52:33.412Z,9.32
2018-01-21T19:55:01.722Z,9.20
2018-01-21T19:57:29.238Z,9.05
2018-01-21T19:59:57.547Z,7.60
2018-01-21T20:02:25.076Z,8.77
2018-01-21T20:04:53.370Z,8.63
2018-01-21T20:07:20.907Z,7.97
2018-01-21T20:09:48.392Z,7.75
2018-01-21T20:12:15.873Z,8.63
2018-01-21T20:14:43.372Z,6.78
2018-01-21T20:17:10.847Z,6.95
2018-01-21T20:19:39.108Z,6.70
2018-01-21T20:22:06.609Z,7.85
2018-01-21T20:24:34.140Z,8.65
2018-01-21T20:27:02.449Z,7.43
2018-01-21T20:29:29.980Z,6.97
2018-01-21T20:31:58.237Z,7.10
2018-01-21T20:34:25.775Z,7.83
2018-01-21T20:36:53.321Z,7.53
2018-01-21T20:39:20.796Z,7.60
2018-01-21T20:41:48.284Z,6.65
2018-01-21T20:44:15.810Z,7.35
2018-01-21T20:46:43.296Z,6.27
2018-01-21T20:49:10.772Z,7.62
2018-01-21T20:51:44.912Z,6.90
2018-01-21T20:54:18.181Z,7.07
2018-01-21T20:56:46.492Z,7.15
2018-01-21T20:59:14.019Z,6.35
2018-01-21T21:01:42.277Z,5.65
2018-01-21T21:04:09.812Z,6.53
2018-01-21T21:06:37.347Z,7.45
2018-01-21T21:09:04.876Z,7.35
2018-01-21T21:11:33.141Z,6.62
2018-01-21T21:14:00.625Z,7.25
2018-01-21T21:16:28.116Z,7.15
2018-01-21T21:18:55.652Z,7.43
2018-01-21T21:21:23.187Z,7.78
2018-01-21T21:23:51.488Z,7.90
2018-01-21T21:26:18.989Z,8.40
2018-01-21T21:28:46.523Z,7.22
2018-01-21T21:31:14.060Z,7.72
2018-01-21T21:33:41.531Z,5.82
2018-01-21T21:36:09.020Z,7.50
2018-01-21T21:38:36.561Z,7.57
2018-01-21T21:41:04.090Z,7.68
2018-01-21T21:43:32.336Z,7.80
2018-01-21T21:45:59.880Z,6.97
2018-01-21T21:48:27.403Z,7.62
2018-01-21T21:50:54.893Z,7.90
2018-01-21T21:53:22.414Z,7.43
2018-01-21T21:55:49.911Z,5.97
2018-01-21T21:58:17.434Z,6.50
2018-01-21T22:00:44.908Z,7.65
2018-01-21T22:03:12.447Z,7.43
2018-01-21T22:05:39.921Z,7.18
2018-01-21T22:08:07.415Z,6.82
2018-01-21T22:10:34.954Z,7.25
2018-01-21T22:13:02.487Z,7.83
2018-01-21T22:15:30.007Z,7.13
2018-01-21T22:17:58.296Z,8.70
2018-01-21T22:20:26.545Z,6.28
2018-01-21T22:22:54.079Z,7.97
2018-01-21T22:25:21.564Z,7.32
2018-01-21T22:27:49.054Z,7.90
2018-01-21T22:30:17.296Z,6.65
2018-01-21T22:32:44.830Z,7.53
2018-01-21T22:35:12.309Z,7.10
2018-01-21T22:37:39.804Z,6.90
2018-01-21T22:40:08.052Z,7.12
2018-01-21T22:42:35.549Z,7.57
2018-01-21T22:45:03.796Z,8.45
2018-01-21T22:47:31.288Z,8.77
2018-01-21T22:49:59.533Z,9.65
2018-01-21T22:52:27.017Z,7.70
2018-01-21T22:54:55.265Z,9.48
2018-01-21T22:57:22.764Z,10.68
2018-01-21T22:59:51.014Z,8.98
2018-01-21T23:02:18.501Z,7.70
2018-01-21T23:04:45.981Z,9.07
2018-01-21T23:07:13.469Z,9.02
2018-01-21T23:15:28.760Z,10.18
2018-01-21T23:17:56.248Z,9.45
2018-01-21T23:20:35.679Z,9.95
2018-01-21T23:23:03.173Z,8.25
2018-01-21T23:25:31.416Z,8.98
2018-01-21T23:27:58.913Z,9.18
2018-01-21T23:30:27.153Z,9.82
2018-01-21T23:32:54.644Z,6.93
2018-01-21T23:35:22.889Z,9.25
2018-01-21T23:37:50.376Z,9.02
2018-01-21T23:40:18.625Z,10.30
2018-01-21T23:42:46.112Z,9.77
2018-01-21T23:45:14.360Z,9.75
2018-01-21T23:47:41.849Z,7.70
2018-01-21T23:50:10.096Z,8.52
2018-01-21T23:52:37.837Z,8.27
2018-01-21T23:55:05.329Z,9.63
2018-01-21T23:57:32.820Z,9.80
